sensor_id;sensor_type;location;lat;lon;timestamp;P1;durP1;ratioP1;P2;durP2;ratioP2
76591;SDS011;65481;47.600;19.682;2023-08-08T00:01:41;1.33;;;0.98;;
76591;SDS011;65481;47.600;19.682;2023-08-08T00:06:43;1.45;;;0.90;;
76591;SDS011;65481;47.600;19.682;2023-08-08T00:11:43;2.63;;;1.13;;
76591;SDS011;65481;47.600;19.682;2023-08-08T00:16:44;1.80;;;0.85;;
76591;SDS011;65481;47.600;19.682;2023-08-08T00:21:44;1.20;;;0.90;;
76591;SDS011;65481;47.600;19.682;2023-08-08T00:26:45;2.83;;;0.82;;
76591;SDS011;65481;47.600;19.682;2023-08-08T00:31:45;1.95;;;0.90;;
76591;SDS011;65481;47.600;19.682;2023-08-08T00:36:46;13.55;;;1.20;;
76591;SDS011;65481;47.600;19.682;2023-08-08T00:41:46;1.42;;;0.85;;
76591;SDS011;65481;47.600;19.682;2023-08-08T00:46:47;1.15;;;0.80;;
76591;SDS011;65481;47.600;19.682;2023-08-08T00:51:47;1.00;;;0.77;;
76591;SDS011;65481;47.600;19.682;2023-08-08T00:56:48;2.50;;;1.00;;
76591;SDS011;65481;47.600;19.682;2023-08-08T01:01:48;3.45;;;0.90;;
76591;SDS011;65481;47.600;19.682;2023-08-08T01:12:52;1.05;;;0.80;;
76591;SDS011;65481;47.600;19.682;2023-08-08T01:17:56;1.45;;;0.90;;
76591;SDS011;65481;47.600;19.682;2023-08-08T01:28:21;1.50;;;0.68;;
76591;SDS011;65481;47.600;19.682;2023-08-08T01:33:22;0.82;;;0.77;;
76591;SDS011;65481;47.600;19.682;2023-08-08T01:38:23;1.95;;;0.70;;
76591;SDS011;65481;47.600;19.682;2023-08-08T01:43:33;1.65;;;0.77;;
76591;SDS011;65481;47.600;19.682;2023-08-08T01:48:35;1.23;;;0.80;;
76591;SDS011;65481;47.600;19.682;2023-08-08T01:53:35;2.65;;;0.60;;
76591;SDS011;65481;47.600;19.682;2023-08-08T01:58:36;1.20;;;0.75;;
76591;SDS011;65481;47.600;19.682;2023-08-08T02:03:37;0.88;;;0.70;;
76591;SDS011;65481;47.600;19.682;2023-08-08T02:08:37;2.65;;;1.27;;
76591;SDS011;65481;47.600;19.682;2023-08-08T02:13:38;1.30;;;0.80;;
76591;SDS011;65481;47.600;19.682;2023-08-08T02:18:38;1.10;;;0.90;;
76591;SDS011;65481;47.600;19.682;2023-08-08T02:23:40;1.02;;;0.65;;
76591;SDS011;65481;47.600;19.682;2023-08-08T02:28:41;2.53;;;0.85;;
76591;SDS011;65481;47.600;19.682;2023-08-08T02:33:41;1.27;;;0.70;;
76591;SDS011;65481;47.600;19.682;2023-08-08T02:38:42;1.27;;;0.80;;
76591;SDS011;65481;47.600;19.682;2023-08-08T02:43:43;1.40;;;0.90;;
76591;SDS011;65481;47.600;19.682;2023-08-08T02:48:43;1.17;;;0.80;;
76591;SDS011;65481;47.600;19.682;2023-08-08T02:53:44;1.73;;;0.80;;
76591;SDS011;65481;47.600;19.682;2023-08-08T02:58:44;0.75;;;0.70;;
76591;SDS011;65481;47.600;19.682;2023-08-08T03:03:45;2.08;;;0.80;;
76591;SDS011;65481;47.600;19.682;2023-08-08T03:08:45;1.85;;;0.68;;
76591;SDS011;65481;47.600;19.682;2023-08-08T03:13:46;1.20;;;0.85;;
76591;SDS011;65481;47.600;19.682;2023-08-08T03:18:46;0.60;;;0.60;;
76591;SDS011;65481;47.600;19.682;2023-08-08T03:23:47;2.60;;;1.40;;
76591;SDS011;65481;47.600;19.682;2023-08-08T03:28:47;1.10;;;0.65;;
76591;SDS011;65481;47.600;19.682;2023-08-08T03:33:50;1.90;;;0.70;;
76591;SDS011;65481;47.600;19.682;2023-08-08T03:38:51;1.10;;;1.00;;
76591;SDS011;65481;47.600;19.682;2023-08-08T03:43:51;1.65;;;0.82;;
76591;SDS011;65481;47.600;19.682;2023-08-08T03:48:51;2.72;;;1.08;;
76591;SDS011;65481;47.600;19.682;2023-08-08T03:53:52;1.27;;;0.75;;
76591;SDS011;65481;47.600;19.682;2023-08-08T03:58:54;1.40;;;0.80;;
76591;SDS011;65481;47.600;19.682;2023-08-08T04:03:55;1.63;;;1.00;;
76591;SDS011;65481;47.600;19.682;2023-08-08T04:08:55;1.65;;;0.98;;
76591;SDS011;65481;47.600;19.682;2023-08-08T04:13:56;1.90;;;0.90;;
76591;SDS011;65481;47.600;19.682;2023-08-08T04:18:56;1.02;;;0.82;;
76591;SDS011;65481;47.600;19.682;2023-08-08T04:23:57;10.90;;;1.50;;
76591;SDS011;65481;47.600;19.682;2023-08-08T04:29:02;1.20;;;0.95;;
76591;SDS011;65481;47.600;19.682;2023-08-08T04:34:03;1.67;;;1.10;;
76591;SDS011;65481;47.600;19.682;2023-08-08T04:39:04;1.52;;;1.20;;
76591;SDS011;65481;47.600;19.682;2023-08-08T04:44:04;4.32;;;1.38;;
76591;SDS011;65481;47.600;19.682;2023-08-08T04:49:04;2.30;;;0.98;;
76591;SDS011;65481;47.600;19.682;2023-08-08T04:54:05;2.58;;;1.30;;
76591;SDS011;65481;47.600;19.682;2023-08-08T04:59:06;1.73;;;1.27;;
76591;SDS011;65481;47.600;19.682;2023-08-08T05:04:07;3.92;;;1.60;;
76591;SDS011;65481;47.600;19.682;2023-08-08T05:09:07;1.45;;;1.08;;
76591;SDS011;65481;47.600;19.682;2023-08-08T05:14:09;2.63;;;1.30;;
76591;SDS011;65481;47.600;19.682;2023-08-08T05:19:10;2.70;;;1.42;;
76591;SDS011;65481;47.600;19.682;2023-08-08T05:24:10;3.05;;;1.00;;
76591;SDS011;65481;47.600;19.682;2023-08-08T05:29:11;2.75;;;0.98;;
76591;SDS011;65481;47.600;19.682;2023-08-08T05:34:11;3.50;;;1.30;;
76591;SDS011;65481;47.600;19.682;2023-08-08T05:39:11;4.18;;;1.30;;
76591;SDS011;65481;47.600;19.682;2023-08-08T05:44:12;2.40;;;1.27;;
76591;SDS011;65481;47.600;19.682;2023-08-08T05:49:12;1.30;;;1.10;;
76591;SDS011;65481;47.600;19.682;2023-08-08T05:54:13;1.70;;;1.10;;
76591;SDS011;65481;47.600;19.682;2023-08-08T05:59:13;3.17;;;1.20;;
76591;SDS011;65481;47.600;19.682;2023-08-08T06:04:14;4.22;;;1.10;;
76591;SDS011;65481;47.600;19.682;2023-08-08T06:09:15;4.68;;;1.10;;
76591;SDS011;65481;47.600;19.682;2023-08-08T06:14:15;2.92;;;1.25;;
76591;SDS011;65481;47.600;19.682;2023-08-08T06:19:17;2.58;;;1.20;;
76591;SDS011;65481;47.600;19.682;2023-08-08T06:24:18;4.53;;;1.75;;
76591;SDS011;65481;47.600;19.682;2023-08-08T06:29:19;1.75;;;1.23;;
76591;SDS011;65481;47.600;19.682;2023-08-08T06:34:19;1.25;;;1.02;;
76591;SDS011;65481;47.600;19.682;2023-08-08T06:39:20;3.20;;;1.40;;
76591;SDS011;65481;47.600;19.682;2023-08-08T06:44:21;2.97;;;1.58;;
76591;SDS011;65481;47.600;19.682;2023-08-08T06:49:22;3.20;;;1.20;;
76591;SDS011;65481;47.600;19.682;2023-08-08T06:54:22;2.35;;;1.30;;
76591;SDS011;65481;47.600;19.682;2023-08-08T06:59:23;3.40;;;1.25;;
76591;SDS011;65481;47.600;19.682;2023-08-08T07:04:24;3.33;;;1.20;;
76591;SDS011;65481;47.600;19.682;2023-08-08T07:09:25;2.65;;;1.27;;
76591;SDS011;65481;47.600;19.682;2023-08-08T07:14:25;3.50;;;1.33;;
76591;SDS011;65481;47.600;19.682;2023-08-08T07:19:26;1.50;;;1.35;;
76591;SDS011;65481;47.600;19.682;2023-08-08T07:24:26;3.45;;;1.20;;
76591;SDS011;65481;47.600;19.682;2023-08-08T07:29:28;1.58;;;1.25;;
76591;SDS011;65481;47.600;19.682;2023-08-08T07:34:29;1.73;;;1.15;;
76591;SDS011;65481;47.600;19.682;2023-08-08T07:39:29;2.08;;;1.33;;
76591;SDS011;65481;47.600;19.682;2023-08-08T07:44:30;2.72;;;1.20;;
76591;SDS011;65481;47.600;19.682;2023-08-08T07:49:32;3.00;;;1.30;;
76591;SDS011;65481;47.600;19.682;2023-08-08T07:54:32;2.23;;;1.13;;
76591;SDS011;65481;47.600;19.682;2023-08-08T07:59:32;1.90;;;1.10;;
76591;SDS011;65481;47.600;19.682;2023-08-08T08:04:33;3.45;;;1.42;;
76591;SDS011;65481;47.600;19.682;2023-08-08T08:09:34;2.30;;;1.50;;
76591;SDS011;65481;47.600;19.682;2023-08-08T08:14:35;8.32;;;1.40;;
76591;SDS011;65481;47.600;19.682;2023-08-08T08:19:35;2.03;;;1.40;;
76591;SDS011;65481;47.600;19.682;2023-08-08T08:24:36;2.53;;;1.40;;
76591;SDS011;65481;47.600;19.682;2023-08-08T08:29:37;2.22;;;1.40;;
76591;SDS011;65481;47.600;19.682;2023-08-08T08:34:38;4.88;;;1.40;;
76591;SDS011;65481;47.600;19.682;2023-08-08T08:39:38;1.65;;;1.38;;
76591;SDS011;65481;47.600;19.682;2023-08-08T08:44:39;2.83;;;1.42;;
76591;SDS011;65481;47.600;19.682;2023-08-08T08:49:42;2.58;;;1.48;;
76591;SDS011;65481;47.600;19.682;2023-08-08T08:54:45;2.13;;;1.40;;
76591;SDS011;65481;47.600;19.682;2023-08-08T08:59:46;2.38;;;1.40;;
76591;SDS011;65481;47.600;19.682;2023-08-08T09:04:46;3.13;;;1.55;;
76591;SDS011;65481;47.600;19.682;2023-08-08T09:09:47;2.00;;;1.55;;
76591;SDS011;65481;47.600;19.682;2023-08-08T09:14:48;4.45;;;1.50;;
76591;SDS011;65481;47.600;19.682;2023-08-08T09:19:54;2.40;;;1.48;;
76591;SDS011;65481;47.600;19.682;2023-08-08T09:24:55;2.40;;;1.33;;
76591;SDS011;65481;47.600;19.682;2023-08-08T09:29:55;5.30;;;1.30;;
76591;SDS011;65481;47.600;19.682;2023-08-08T09:34:57;1.42;;;1.17;;
76591;SDS011;65481;47.600;19.682;2023-08-08T09:39:58;3.10;;;1.50;;
76591;SDS011;65481;47.600;19.682;2023-08-08T09:45:00;5.00;;;1.80;;
76591;SDS011;65481;47.600;19.682;2023-08-08T09:50:01;3.38;;;1.50;;
76591;SDS011;65481;47.600;19.682;2023-08-08T09:55:05;4.28;;;1.40;;
76591;SDS011;65481;47.600;19.682;2023-08-08T10:00:06;2.60;;;1.40;;
76591;SDS011;65481;47.600;19.682;2023-08-08T10:05:12;3.40;;;1.80;;
76591;SDS011;65481;47.600;19.682;2023-08-08T10:10:14;1.55;;;1.25;;
76591;SDS011;65481;47.600;19.682;2023-08-08T10:15:15;2.80;;;1.27;;
76591;SDS011;65481;47.600;19.682;2023-08-08T10:20:16;4.25;;;1.50;;
76591;SDS011;65481;47.600;19.682;2023-08-08T10:25:19;2.15;;;1.40;;
76591;SDS011;65481;47.600;19.682;2023-08-08T10:30:20;2.95;;;1.30;;
76591;SDS011;65481;47.600;19.682;2023-08-08T10:35:21;4.85;;;1.60;;
76591;SDS011;65481;47.600;19.682;2023-08-08T10:40:24;3.67;;;1.73;;
76591;SDS011;65481;47.600;19.682;2023-08-08T10:45:32;3.63;;;1.50;;
76591;SDS011;65481;47.600;19.682;2023-08-08T10:50:39;2.58;;;1.35;;
76591;SDS011;65481;47.600;19.682;2023-08-08T10:55:41;2.70;;;1.33;;
76591;SDS011;65481;47.600;19.682;2023-08-08T11:00:44;2.40;;;1.35;;
76591;SDS011;65481;47.600;19.682;2023-08-08T11:05:45;3.20;;;1.50;;
76591;SDS011;65481;47.600;19.682;2023-08-08T11:10:52;2.22;;;1.40;;
76591;SDS011;65481;47.600;19.682;2023-08-08T11:15:53;2.45;;;1.30;;
76591;SDS011;65481;47.600;19.682;2023-08-08T11:20:53;1.90;;;1.42;;
76591;SDS011;65481;47.600;19.682;2023-08-08T11:25:54;2.05;;;1.40;;
76591;SDS011;65481;47.600;19.682;2023-08-08T11:30:55;2.75;;;1.50;;
76591;SDS011;65481;47.600;19.682;2023-08-08T11:35:55;2.10;;;1.45;;
76591;SDS011;65481;47.600;19.682;2023-08-08T11:40:56;2.35;;;1.40;;
76591;SDS011;65481;47.600;19.682;2023-08-08T11:45:59;2.30;;;1.38;;
76591;SDS011;65481;47.600;19.682;2023-08-08T11:51:02;2.50;;;1.30;;
76591;SDS011;65481;47.600;19.682;2023-08-08T11:56:04;3.60;;;1.30;;
76591;SDS011;65481;47.600;19.682;2023-08-08T12:01:05;2.17;;;1.63;;
76591;SDS011;65481;47.600;19.682;2023-08-08T12:06:13;2.78;;;1.40;;
76591;SDS011;65481;47.600;19.682;2023-08-08T12:11:15;2.40;;;1.23;;
76591;SDS011;65481;47.600;19.682;2023-08-08T12:16:16;2.15;;;1.33;;
76591;SDS011;65481;47.600;19.682;2023-08-08T12:21:16;1.65;;;1.27;;
76591;SDS011;65481;47.600;19.682;2023-08-08T12:26:17;1.23;;;1.10;;
76591;SDS011;65481;47.600;19.682;2023-08-08T12:31:17;2.35;;;1.48;;
76591;SDS011;65481;47.600;19.682;2023-08-08T12:36:18;3.72;;;1.60;;
76591;SDS011;65481;47.600;19.682;2023-08-08T12:41:18;2.22;;;1.30;;
76591;SDS011;65481;47.600;19.682;2023-08-08T12:46:19;1.80;;;1.38;;
76591;SDS011;65481;47.600;19.682;2023-08-08T12:51:19;1.88;;;1.40;;
76591;SDS011;65481;47.600;19.682;2023-08-08T12:56:20;2.40;;;1.13;;
76591;SDS011;65481;47.600;19.682;2023-08-08T13:01:21;1.85;;;1.30;;
76591;SDS011;65481;47.600;19.682;2023-08-08T13:06:21;1.48;;;1.05;;
76591;SDS011;65481;47.600;19.682;2023-08-08T13:11:21;2.50;;;1.40;;
76591;SDS011;65481;47.600;19.682;2023-08-08T13:16:22;1.80;;;1.38;;
76591;SDS011;65481;47.600;19.682;2023-08-08T13:21:23;1.67;;;1.30;;
76591;SDS011;65481;47.600;19.682;2023-08-08T13:26:23;2.00;;;1.27;;
76591;SDS011;65481;47.600;19.682;2023-08-08T13:31:24;2.42;;;1.35;;
76591;SDS011;65481;47.600;19.682;2023-08-08T13:36:24;2.78;;;1.45;;
76591;SDS011;65481;47.600;19.682;2023-08-08T13:41:25;2.13;;;1.75;;
76591;SDS011;65481;47.600;19.682;2023-08-08T13:46:25;2.13;;;1.37;;
76591;SDS011;65481;47.600;19.682;2023-08-08T13:51:26;1.77;;;1.30;;
76591;SDS011;65481;47.600;19.682;2023-08-08T13:56:26;4.00;;;1.35;;
76591;SDS011;65481;47.600;19.682;2023-08-08T14:01:27;7.10;;;1.58;;
76591;SDS011;65481;47.600;19.682;2023-08-08T14:06:27;2.58;;;1.40;;
76591;SDS011;65481;47.600;19.682;2023-08-08T14:11:28;3.05;;;1.77;;
76591;SDS011;65481;47.600;19.682;2023-08-08T14:16:29;3.70;;;1.20;;
76591;SDS011;65481;47.600;19.682;2023-08-08T14:21:29;1.75;;;1.13;;
76591;SDS011;65481;47.600;19.682;2023-08-08T14:26:30;2.95;;;1.40;;
76591;SDS011;65481;47.600;19.682;2023-08-08T14:31:30;4.05;;;1.88;;
76591;SDS011;65481;47.600;19.682;2023-08-08T14:36:31;2.53;;;1.60;;
76591;SDS011;65481;47.600;19.682;2023-08-08T14:41:31;2.33;;;1.48;;
76591;SDS011;65481;47.600;19.682;2023-08-08T14:46:32;3.25;;;1.50;;
76591;SDS011;65481;47.600;19.682;2023-08-08T14:51:34;2.85;;;1.60;;
76591;SDS011;65481;47.600;19.682;2023-08-08T14:56:35;2.03;;;1.33;;
76591;SDS011;65481;47.600;19.682;2023-08-08T15:01:35;2.42;;;1.27;;
76591;SDS011;65481;47.600;19.682;2023-08-08T15:06:36;2.38;;;1.95;;
76591;SDS011;65481;47.600;19.682;2023-08-08T15:11:38;2.50;;;1.58;;
76591;SDS011;65481;47.600;19.682;2023-08-08T15:16:38;2.90;;;1.52;;
76591;SDS011;65481;47.600;19.682;2023-08-08T15:21:39;2.47;;;1.58;;
76591;SDS011;65481;47.600;19.682;2023-08-08T15:26:40;3.85;;;2.00;;
76591;SDS011;65481;47.600;19.682;2023-08-08T15:31:40;2.50;;;1.45;;
76591;SDS011;65481;47.600;19.682;2023-08-08T15:36:40;2.65;;;1.60;;
76591;SDS011;65481;47.600;19.682;2023-08-08T15:41:41;3.47;;;1.67;;
76591;SDS011;65481;47.600;19.682;2023-08-08T15:46:41;2.40;;;1.55;;
76591;SDS011;65481;47.600;19.682;2023-08-08T15:51:42;2.95;;;1.33;;
76591;SDS011;65481;47.600;19.682;2023-08-08T15:56:42;2.17;;;1.38;;
76591;SDS011;65481;47.600;19.682;2023-08-08T16:01:43;1.98;;;1.27;;
76591;SDS011;65481;47.600;19.682;2023-08-08T16:06:43;3.47;;;1.63;;
76591;SDS011;65481;47.600;19.682;2023-08-08T16:11:44;2.45;;;1.30;;
76591;SDS011;65481;47.600;19.682;2023-08-08T16:16:45;2.55;;;1.38;;
76591;SDS011;65481;47.600;19.682;2023-08-08T16:21:45;2.13;;;1.42;;
76591;SDS011;65481;47.600;19.682;2023-08-08T16:26:46;3.13;;;1.30;;
76591;SDS011;65481;47.600;19.682;2023-08-08T16:31:47;2.03;;;1.30;;
76591;SDS011;65481;47.600;19.682;2023-08-08T16:36:47;1.73;;;1.27;;
76591;SDS011;65481;47.600;19.682;2023-08-08T16:41:48;1.90;;;1.25;;
76591;SDS011;65481;47.600;19.682;2023-08-08T16:46:49;2.17;;;1.40;;
76591;SDS011;65481;47.600;19.682;2023-08-08T16:51:50;3.15;;;1.73;;
76591;SDS011;65481;47.600;19.682;2023-08-08T16:56:51;3.03;;;1.65;;
76591;SDS011;65481;47.600;19.682;2023-08-08T17:01:51;3.72;;;1.60;;
76591;SDS011;65481;47.600;19.682;2023-08-08T17:06:52;2.80;;;1.55;;
76591;SDS011;65481;47.600;19.682;2023-08-08T17:11:54;2.85;;;1.40;;
76591;SDS011;65481;47.600;19.682;2023-08-08T17:16:54;2.72;;;1.50;;
76591;SDS011;65481;47.600;19.682;2023-08-08T17:21:57;2.47;;;1.30;;
76591;SDS011;65481;47.600;19.682;2023-08-08T17:26:58;2.65;;;1.00;;
76591;SDS011;65481;47.600;19.682;2023-08-08T17:32:00;2.92;;;1.50;;
76591;SDS011;65481;47.600;19.682;2023-08-08T17:37:01;3.95;;;1.50;;
76591;SDS011;65481;47.600;19.682;2023-08-08T17:42:02;2.30;;;1.67;;
76591;SDS011;65481;47.600;19.682;2023-08-08T17:47:03;1.70;;;1.30;;
76591;SDS011;65481;47.600;19.682;2023-08-08T17:52:04;1.80;;;1.30;;
76591;SDS011;65481;47.600;19.682;2023-08-08T18:11:03;2.85;;;1.83;;
76591;SDS011;65481;47.600;19.682;2023-08-08T18:16:04;3.75;;;1.50;;
76591;SDS011;65481;47.600;19.682;2023-08-08T18:21:05;2.45;;;1.65;;
76591;SDS011;65481;47.600;19.682;2023-08-08T18:26:06;3.30;;;1.83;;
76591;SDS011;65481;47.600;19.682;2023-08-08T18:31:09;4.95;;;1.90;;
76591;SDS011;65481;47.600;19.682;2023-08-08T18:36:15;3.95;;;1.70;;
76591;SDS011;65481;47.600;19.682;2023-08-08T18:41:15;4.32;;;1.98;;
76591;SDS011;65481;47.600;19.682;2023-08-08T18:46:18;4.00;;;1.90;;
76591;SDS011;65481;47.600;19.682;2023-08-08T18:51:20;3.15;;;1.90;;
76591;SDS011;65481;47.600;19.682;2023-08-08T18:56:23;3.47;;;1.90;;
76591;SDS011;65481;47.600;19.682;2023-08-08T19:01:26;3.63;;;2.00;;
76591;SDS011;65481;47.600;19.682;2023-08-08T19:06:27;5.68;;;2.17;;
76591;SDS011;65481;47.600;19.682;2023-08-08T19:11:28;2.25;;;1.90;;
76591;SDS011;65481;47.600;19.682;2023-08-08T19:16:29;4.45;;;2.03;;
76591;SDS011;65481;47.600;19.682;2023-08-08T19:21:31;4.15;;;1.90;;
76591;SDS011;65481;47.600;19.682;2023-08-08T19:26:32;5.35;;;2.72;;
76591;SDS011;65481;47.600;19.682;2023-08-08T19:31:33;2.97;;;2.10;;
76591;SDS011;65481;47.600;19.682;2023-08-08T19:36:34;4.57;;;2.20;;
76591;SDS011;65481;47.600;19.682;2023-08-08T19:41:35;4.40;;;1.90;;
76591;SDS011;65481;47.600;19.682;2023-08-08T19:46:38;4.40;;;2.08;;
76591;SDS011;65481;47.600;19.682;2023-08-08T19:51:40;3.67;;;2.05;;
76591;SDS011;65481;47.600;19.682;2023-08-08T19:56:41;3.67;;;2.17;;
76591;SDS011;65481;47.600;19.682;2023-08-08T20:01:43;4.30;;;2.80;;
76591;SDS011;65481;47.600;19.682;2023-08-08T20:06:44;6.72;;;4.75;;
76591;SDS011;65481;47.600;19.682;2023-08-08T20:11:44;4.53;;;3.53;;
76591;SDS011;65481;47.600;19.682;2023-08-08T20:16:45;5.80;;;3.42;;
76591;SDS011;65481;47.600;19.682;2023-08-08T20:21:46;4.57;;;2.95;;
76591;SDS011;65481;47.600;19.682;2023-08-08T20:26:47;5.03;;;3.00;;
76591;SDS011;65481;47.600;19.682;2023-08-08T20:31:48;4.25;;;2.90;;
76591;SDS011;65481;47.600;19.682;2023-08-08T20:36:49;3.72;;;2.20;;
76591;SDS011;65481;47.600;19.682;2023-08-08T20:41:49;3.55;;;2.60;;
76591;SDS011;65481;47.600;19.682;2023-08-08T20:46:53;3.60;;;2.60;;
76591;SDS011;65481;47.600;19.682;2023-08-08T20:51:54;2.72;;;2.15;;
76591;SDS011;65481;47.600;19.682;2023-08-08T20:56:56;6.63;;;2.15;;
76591;SDS011;65481;47.600;19.682;2023-08-08T21:01:57;3.15;;;2.00;;
76591;SDS011;65481;47.600;19.682;2023-08-08T21:06:58;5.18;;;2.70;;
76591;SDS011;65481;47.600;19.682;2023-08-08T21:11:58;4.15;;;2.40;;
76591;SDS011;65481;47.600;19.682;2023-08-08T21:16:59;4.05;;;2.65;;
76591;SDS011;65481;47.600;19.682;2023-08-08T21:21:59;5.82;;;3.10;;
76591;SDS011;65481;47.600;19.682;2023-08-08T21:27:00;5.93;;;2.97;;
76591;SDS011;65481;47.600;19.682;2023-08-08T21:32:01;3.92;;;3.53;;
76591;SDS011;65481;47.600;19.682;2023-08-08T21:37:01;5.22;;;3.42;;
76591;SDS011;65481;47.600;19.682;2023-08-08T21:42:02;5.80;;;3.95;;
76591;SDS011;65481;47.600;19.682;2023-08-08T21:47:03;4.10;;;2.97;;
76591;SDS011;65481;47.600;19.682;2023-08-08T21:52:03;4.55;;;3.42;;
76591;SDS011;65481;47.600;19.682;2023-08-08T21:57:04;3.78;;;2.95;;
76591;SDS011;65481;47.600;19.682;2023-08-08T22:02:04;4.85;;;3.13;;
76591;SDS011;65481;47.600;19.682;2023-08-08T22:07:05;5.57;;;3.25;;
76591;SDS011;65481;47.600;19.682;2023-08-08T22:12:06;5.75;;;3.00;;
76591;SDS011;65481;47.600;19.682;2023-08-08T22:17:06;6.28;;;3.00;;
76591;SDS011;65481;47.600;19.682;2023-08-08T22:22:07;4.85;;;2.80;;
76591;SDS011;65481;47.600;19.682;2023-08-08T22:27:07;4.13;;;2.72;;
76591;SDS011;65481;47.600;19.682;2023-08-08T22:32:08;4.18;;;2.92;;
76591;SDS011;65481;47.600;19.682;2023-08-08T22:37:08;4.90;;;3.10;;
76591;SDS011;65481;47.600;19.682;2023-08-08T22:42:09;6.28;;;4.03;;
76591;SDS011;65481;47.600;19.682;2023-08-08T22:47:09;4.70;;;3.13;;
76591;SDS011;65481;47.600;19.682;2023-08-08T22:52:10;4.38;;;3.85;;
76591;SDS011;65481;47.600;19.682;2023-08-08T22:57:10;3.70;;;3.05;;
76591;SDS011;65481;47.600;19.682;2023-08-08T23:02:10;4.50;;;3.10;;
76591;SDS011;65481;47.600;19.682;2023-08-08T23:07:11;6.80;;;2.92;;
76591;SDS011;65481;47.600;19.682;2023-08-08T23:12:12;3.83;;;3.15;;
76591;SDS011;65481;47.600;19.682;2023-08-08T23:17:12;5.80;;;2.78;;
76591;SDS011;65481;47.600;19.682;2023-08-08T23:22:13;4.05;;;2.88;;
76591;SDS011;65481;47.600;19.682;2023-08-08T23:27:13;4.80;;;2.63;;
76591;SDS011;65481;47.600;19.682;2023-08-08T23:32:15;4.85;;;2.83;;
76591;SDS011;65481;47.600;19.682;2023-08-08T23:37:15;3.13;;;2.55;;
76591;SDS011;65481;47.600;19.682;2023-08-08T23:42:17;3.85;;;2.50;;
76591;SDS011;65481;47.600;19.682;2023-08-08T23:47:18;3.05;;;2.40;;
76591;SDS011;65481;47.600;19.682;2023-08-08T23:52:18;4.70;;;2.50;;
76591;SDS011;65481;47.600;19.682;2023-08-08T23:57:19;2.92;;;2.63;;
